»·PEaware :: N710DS KGCN-KVGT

N710DS :: KGCN-KVGT

FLIGHT INFORMATION

Flight Status: Arrived
Operator: Privately registered:
United States
More flights under this callsign
Pilot: John H. (10732)
Aircraft: Unknown
(B60T)
More flights by this aircraft type
Origin: KGCN Grand Canyon Natl Park
United States
Destination: KVGT North Las Vegas
United States
More flights between these airports :: More routes between these airports
Route: +PARKS4 PGS KADDY3
File this flight plan on PilotEdge
Remarks:
Altitude:
(Current/Filed)
16,000ft
Speed:
(Current/Filed)
250kts
Departed: 21-May-19 05:07 PM
Arrived: 21-May-19 05:56 PM
Distance/Time
Traveled:
149nm/0:48
Distance/Time
To Go:
Arrived

Flight Plot

Page will automatically refresh every two minutes.

Flight plan parsing failed; only flown route is shown


Map Options




Map Legend


Flown Route
Filed Route
Departure Airport
Arrival Airport
Navaid (VOR, NDB)
Fix

Horizontal Profiles

Position Reports

Time Latitude Longitude Heading Altitude Ground
Speed
21-May-19 16:55 35.957314 -112.139397 225 6612ft 0kts
21-May-19 16:56 35.957314 -112.139397 225 6612ft 0kts
21-May-19 16:57 35.957314 -112.139397 225 6612ft 0kts
21-May-19 16:58 35.957313 -112.139398 225 6612ft 0kts
21-May-19 16:59 35.957313 -112.139398 225 6612ft 0kts
21-May-19 17:00 35.957313 -112.139398 225 6612ft 0kts
21-May-19 17:01 35.957313 -112.139398 225 6612ft 0kts
21-May-19 17:02 35.957313 -112.139398 225 6612ft 0kts
21-May-19 17:03 35.957294 -112.139442 250 6612ft 0kts
21-May-19 17:04 35.960743 -112.136397 33 6612ft 22kts
21-May-19 17:05 35.961139 -112.136401 305 6612ft 0kts
21-May-19 17:06 35.959174 -112.139794 224 6620ft 94kts
21-May-19 17:08 35.935863 -112.165687 223 10014ft 146kts
21-May-19 17:09 35.913159 -112.222253 279 10013ft 212kts
21-May-19 17:10 35.926351 -112.293755 268 9991ft 211kts
21-May-19 17:11 35.910866 -112.354643 256 12867ft 174kts
21-May-19 17:12 35.898425 -112.410790 252 16048ft 180kts
21-May-19 17:13 35.881782 -112.481197 252 15997ft 223kts
21-May-19 17:14 35.864861 -112.552913 252 15989ft 214kts
21-May-19 17:15 35.848291 -112.622654 252 15988ft 211kts
21-May-19 17:16 35.831805 -112.691869 252 15987ft 210kts
21-May-19 17:17 35.815072 -112.761936 252 15984ft 214kts
21-May-19 17:18 35.798208 -112.832353 252 15983ft 215kts
21-May-19 17:19 35.781129 -112.903456 252 15983ft 216kts
21-May-19 17:20 35.764040 -112.974384 252 15977ft 216kts
21-May-19 17:21 35.746902 -113.045321 252 15970ft 216kts
21-May-19 17:22 35.729728 -113.116197 252 15967ft 216kts
21-May-19 17:23 35.712531 -113.186969 253 15955ft 215kts
21-May-19 17:24 35.695357 -113.257430 254 15965ft 215kts
21-May-19 17:25 35.678100 -113.328025 254 15960ft 215kts
21-May-19 17:26 35.660958 -113.398001 254 15954ft 213kts
21-May-19 17:26 35.646633 -113.456289 255 15943ft 213kts
21-May-19 17:28 35.626819 -113.538167 260 15934ft 213kts
21-May-19 17:28 35.632662 -113.598025 278 15933ft 212kts
21-May-19 17:29 35.642819 -113.669593 278 15933ft 213kts
21-May-19 17:31 35.654798 -113.753712 278 15917ft 214kts
21-May-19 17:31 35.663343 -113.813937 278 15980ft 211kts
21-May-19 17:32 35.673433 -113.885360 278 16000ft 212kts
21-May-19 17:33 35.682834 -113.952186 278 15996ft 214kts
21-May-19 17:34 35.692797 -114.023335 278 15993ft 216kts
21-May-19 17:35 35.702988 -114.096415 278 15994ft 216kts
21-May-19 17:36 35.713449 -114.171710 279 15266ft 233kts
21-May-19 17:37 35.723825 -114.246794 278 14093ft 218kts
21-May-19 17:38 35.734177 -114.320357 279 12961ft 218kts
21-May-19 17:39 35.746637 -114.393406 281 11885ft 217kts
21-May-19 17:40 35.794395 -114.431868 337 11983ft 216kts
21-May-19 17:41 35.854302 -114.454957 337 11985ft 241kts
21-May-19 17:42 35.919398 -114.481150 338 11977ft 247kts
21-May-19 17:43 35.966362 -114.534565 303 10634ft 221kts
21-May-19 17:44 36.002316 -114.594775 303 9159ft 216kts
21-May-19 17:45 36.037312 -114.655244 303 7682ft 216kts
21-May-19 17:46 36.072800 -114.717141 303 6982ft 230kts
21-May-19 17:47 36.109649 -114.781180 303 6971ft 227kts
21-May-19 17:48 36.134107 -114.851820 283 6973ft 224kts
21-May-19 17:49 36.149769 -114.926684 283 6972ft 225kts
21-May-19 17:50 36.165314 -115.001418 283 6942ft 214kts
21-May-19 17:51 36.177536 -115.063910 272 6186ft 136kts
21-May-19 17:52 36.166438 -115.098575 244 4931ft 132kts
21-May-19 17:53 36.165668 -115.140378 304 3221ft 129kts
21-May-19 17:54 36.188661 -115.169607 311 2708ft 110kts
21-May-19 17:55 36.208699 -115.195027 317 2208ft 20kts
21-May-19 17:56 36.210653 -115.197746 258 2208ft 10kts
21-May-19 17:57 36.210215 -115.198740 304 2208ft 6kts
21-May-19 17:58 36.210515 -115.199514 240 2208ft 0kts
21-May-19 17:59 36.210488 -115.199610 276 2208ft 2kts
21-May-19 18:00 36.210405 -115.199784 138 2208ft 0kts

Navigation Log

Ident Type
Flight plan parsing failed, navigation log unavailable